createdAt,value
2019-01-22T00:01:02.113Z,109.47
2019-01-22T00:03:34.395Z,114.77
2019-01-22T00:06:07.002Z,117.40
2019-01-22T00:08:39.561Z,117.80
2019-01-22T00:11:11.927Z,117.63
2019-01-22T00:13:44.573Z,110.17
2019-01-22T00:16:16.967Z,120.27
2019-01-22T00:18:49.347Z,120.37
2019-01-22T00:21:22.937Z,113.50
2019-01-22T00:23:56.173Z,124.50
2019-01-22T00:26:28.395Z,122.50
2019-01-22T00:29:00.783Z,112.63
2019-01-22T00:31:33.077Z,122.40
2019-01-22T00:34:05.346Z,126.50
2019-01-22T00:36:37.583Z,120.60
2019-01-22T00:39:09.839Z,132.73
2019-01-22T00:41:44.462Z,126.73
2019-01-22T00:44:17.932Z,114.07
2019-01-22T00:46:49.378Z,108.17
2019-01-22T00:49:25.096Z,109.03
2019-01-22T00:51:57.585Z,99.77
2019-01-22T00:54:30.002Z,97.23
2019-01-22T00:57:02.265Z,97.07
2019-01-22T00:59:34.602Z,110.97
2019-01-22T01:02:07.412Z,111.07
2019-01-22T01:04:39.694Z,110.70
2019-01-22T01:07:12.065Z,119.30
2019-01-22T01:09:44.436Z,100.60
2019-01-22T01:12:17.025Z,106.60
2019-01-22T01:14:49.408Z,108.67
2019-01-22T01:17:21.588Z,109.23
2019-01-22T01:19:53.987Z,102.83
2019-01-22T01:22:26.405Z,97.73
2019-01-22T01:24:59.093Z,114.97
2019-01-22T01:27:31.948Z,113.80
2019-01-22T01:30:04.693Z,106.63
2019-01-22T01:32:36.934Z,110.03
2019-01-22T01:35:09.610Z,107.40
2019-01-22T01:37:41.879Z,103.40
2019-01-22T01:40:14.779Z,109.33
2019-01-22T01:42:47.207Z,90.60
2019-01-22T01:45:19.645Z,101.97
2019-01-22T01:47:52.061Z,100.07
2019-01-22T01:50:24.529Z,109.57
2019-01-22T01:52:56.790Z,102.23
2019-01-22T01:55:29.448Z,101.77
2019-01-22T01:58:05.006Z,97.50
2019-01-22T02:00:37.484Z,101.60
2019-01-22T02:03:09.563Z,117.13
2019-01-22T02:05:41.941Z,100.60
2019-01-22T02:08:15.289Z,96.80
2019-01-22T02:10:47.700Z,96.60
2019-01-22T02:13:31.037Z,102.77
2019-01-22T02:16:22.330Z,97.37
2019-01-22T02:18:58.842Z,95.50
2019-01-22T02:21:49.999Z,123.07
2019-01-22T02:24:40.313Z,115.20
2019-01-22T02:27:20.052Z,136.87
2019-01-22T02:30:22.907Z,99.90
2019-01-22T02:33:19.481Z,99.97
2019-01-22T02:36:02.370Z,96.93
2019-01-22T02:39:00.365Z,119.13
2019-01-22T02:42:01.127Z,115.97
2019-01-22T02:45:04.491Z,99.47
2019-01-22T02:47:42.611Z,127.43
2019-01-22T02:50:28.782Z,127.20
2019-01-22T02:53:23.855Z,105.20
2019-01-22T02:56:19.210Z,105.97
2019-01-22T02:59:00.701Z,97.23
2019-01-22T03:01:43.106Z,97.53
2019-01-22T03:04:23.842Z,92.03
2019-01-22T03:07:16.284Z,96.63
2019-01-22T03:10:12.331Z,90.10
2019-01-22T03:13:19.938Z,90.07
2019-01-22T03:16:08.509Z,99.57
2019-01-22T03:18:50.591Z,98.37
2019-01-22T03:21:53.082Z,95.67
2019-01-22T03:24:49.774Z,109.90
2019-01-22T03:27:51.333Z,112.10
2019-01-22T03:30:26.506Z,99.10
2019-01-22T03:33:11.807Z,103.97
2019-01-22T03:35:51.160Z,113.33
2019-01-22T03:38:43.455Z,99.43
2019-01-22T03:41:35.883Z,101.63
2019-01-22T03:44:28.918Z,99.77
2019-01-22T03:47:22.731Z,113.87
2019-01-22T03:50:13.844Z,105.00
2019-01-22T03:53:10.542Z,107.70
2019-01-22T03:55:57.379Z,107.53
2019-01-22T03:58:29.008Z,105.53
2019-01-22T04:01:07.092Z,104.27
2019-01-22T04:03:38.610Z,95.83
2019-01-22T04:06:21.723Z,106.93
2019-01-22T04:08:53.062Z,96.60
2019-01-22T04:11:31.570Z,100.10
2019-01-22T04:14:02.827Z,103.03
2019-01-22T04:16:36.619Z,113.60
2019-01-22T04:19:09.159Z,102.80
2019-01-22T04:21:43.984Z,97.67
2019-01-22T04:24:41.991Z,81.20
2019-01-22T04:27:28.103Z,92.17
2019-01-22T04:30:08.827Z,87.10
2019-01-22T04:32:45.352Z,83.07
2019-01-22T04:35:41.143Z,94.00
2019-01-22T04:38:33.301Z,111.03
2019-01-22T04:41:11.708Z,91.17
2019-01-22T04:43:51.001Z,88.80
2019-01-22T04:46:33.252Z,86.83
2019-01-22T04:49:33.570Z,109.87
2019-01-22T04:52:14.141Z,87.33
2019-01-22T04:55:06.231Z,104.80
2019-01-22T04:57:42.637Z,95.33
2019-01-22T05:00:38.210Z,80.43
2019-01-22T05:03:15.703Z,88.67
2019-01-22T05:06:01.310Z,114.77
2019-01-22T05:09:06.562Z,118.33
2019-01-22T05:12:10.704Z,111.67
2019-01-22T05:14:53.761Z,120.40
2019-01-22T05:17:48.713Z,101.33
2019-01-22T05:20:25.994Z,106.77
2019-01-22T05:23:23.824Z,110.27
2019-01-22T05:26:05.909Z,109.70
2019-01-22T05:28:56.945Z,96.73
2019-01-22T05:31:37.258Z,136.67
2019-01-22T05:34:26.678Z,124.43
2019-01-22T05:37:09.315Z,111.50
2019-01-22T05:39:57.630Z,98.80
2019-01-22T05:42:39.421Z,95.73
2019-01-22T05:45:39.846Z,92.93
2019-01-22T05:48:33.356Z,100.90
2019-01-22T05:51:32.934Z,87.40
2019-01-22T05:54:46.113Z,101.10
2019-01-22T05:57:23.778Z,101.03
2019-01-22T06:00:15.145Z,87.33
2019-01-22T06:02:49.290Z,107.03
2019-01-22T06:05:55.929Z,116.17
2019-01-22T06:08:58.822Z,104.00
2019-01-22T06:11:53.873Z,95.57
2019-01-22T06:14:52.914Z,105.10
2019-01-22T06:17:47.984Z,94.87
2019-01-22T06:20:35.724Z,93.40
2019-01-22T06:23:37.305Z,112.30
2019-01-22T06:26:16.293Z,104.23
2019-01-22T06:29:08.157Z,87.47
2019-01-22T06:32:00.431Z,89.47
2019-01-22T06:34:42.322Z,93.27
2019-01-22T06:37:25.058Z,104.10
2019-01-22T06:40:15.133Z,105.20
2019-01-22T06:43:07.559Z,103.00
2019-01-22T06:45:49.273Z,90.27
2019-01-22T06:48:34.856Z,101.83
2019-01-22T06:51:34.064Z,92.23
2019-01-22T06:54:39.747Z,88.83
2019-01-22T06:57:17.065Z,91.63
2019-01-22T07:00:17.231Z,91.10
2019-01-22T07:03:01.959Z,87.27
2019-01-22T07:05:40.478Z,95.37
2019-01-22T07:08:37.637Z,98.73
2019-01-22T07:11:31.848Z,96.97
2019-01-22T07:14:21.399Z,92.50
2019-01-22T07:17:06.176Z,91.93
2019-01-22T07:19:56.154Z,184.87
2019-01-22T07:22:31.464Z,287.13
2019-01-22T07:25:17.462Z,157.90
2019-01-22T07:28:04.878Z,132.00
2019-01-22T07:30:57.663Z,92.93
2019-01-22T07:33:52.914Z,115.90
2019-01-22T07:36:32.910Z,234.43
2019-01-22T07:39:11.702Z,98.60
2019-01-22T07:41:50.139Z,81.60
2019-01-22T07:44:30.276Z,86.53
2019-01-22T07:47:11.466Z,79.07
2019-01-22T07:50:06.449Z,79.67
2019-01-22T07:52:51.365Z,94.43
2019-01-22T07:55:36.342Z,97.50
2019-01-22T07:58:42.675Z,83.97
2019-01-22T08:01:36.831Z,97.90
2019-01-22T08:04:49.165Z,84.43
2019-01-22T08:07:50.767Z,68.90
2019-01-22T08:10:40.551Z,129.33
2019-01-22T08:13:32.142Z,84.20
2019-01-22T08:16:22.042Z,86.50
2019-01-22T08:19:01.156Z,78.27
2019-01-22T08:21:53.321Z,63.63
2019-01-22T08:24:47.198Z,85.60
2019-01-22T08:27:44.504Z,100.33
2019-01-22T08:30:40.110Z,99.40
2019-01-22T08:33:18.616Z,89.60
2019-01-22T08:36:23.086Z,63.13
2019-01-22T08:39:14.365Z,63.47
2019-01-22T08:41:57.986Z,98.90
2019-01-22T08:44:34.684Z,67.73
2019-01-22T08:47:34.846Z,56.97
2019-01-22T08:50:35.017Z,79.17
2019-01-22T08:53:10.594Z,68.67
2019-01-22T08:56:14.027Z,75.93
2019-01-22T08:59:05.270Z,73.83
2019-01-22T09:02:13.896Z,66.50
2019-01-22T09:04:52.288Z,63.17
2019-01-22T09:07:42.704Z,60.93
2019-01-22T09:10:41.589Z,69.53
2019-01-22T09:13:24.285Z,62.90
2019-01-22T09:16:20.281Z,72.70
2019-01-22T09:19:20.655Z,56.60
2019-01-22T09:22:17.556Z,87.83
2019-01-22T09:24:54.194Z,67.97
2019-01-22T09:28:02.938Z,54.43
2019-01-22T09:30:55.515Z,48.53
2019-01-22T09:34:02.510Z,63.70
2019-01-22T09:37:11.929Z,68.67
2019-01-22T09:39:44.230Z,59.73
2019-01-22T09:42:16.616Z,77.17
2019-01-22T09:44:51.150Z,109.33
2019-01-22T09:47:24.535Z,82.30
2019-01-22T09:49:55.899Z,57.93
2019-01-22T09:52:29.163Z,71.60
2019-01-22T09:55:00.323Z,123.83
2019-01-22T09:57:33.777Z,93.70
2019-01-22T10:00:05.648Z,73.23
2019-01-22T10:02:38.846Z,62.77
2019-01-22T10:05:11.330Z,75.67
2019-01-22T10:07:43.604Z,57.83
2019-01-22T10:10:17.006Z,55.80
2019-01-22T10:12:49.447Z,58.87
2019-01-22T10:15:22.098Z,66.17
2019-01-22T10:17:54.585Z,57.13
2019-01-22T10:20:26.799Z,57.17
2019-01-22T10:22:59.323Z,52.30
2019-01-22T10:25:31.719Z,53.60
2019-01-22T10:28:04.273Z,58.90
2019-01-22T10:30:36.671Z,65.47
2019-01-22T10:33:09.118Z,48.20
2019-01-22T10:35:41.316Z,67.30
2019-01-22T10:38:13.555Z,54.57
2019-01-22T10:40:45.819Z,54.80
2019-01-22T10:43:18.051Z,55.27
2019-01-22T10:45:50.401Z,54.33
2019-01-22T10:48:23.163Z,47.80
2019-01-22T10:50:55.412Z,56.80
2019-01-22T10:53:30.002Z,59.37
2019-01-22T10:56:02.226Z,53.83
2019-01-22T10:58:34.770Z,62.63
2019-01-22T11:01:06.971Z,51.50
2019-01-22T11:03:39.279Z,45.00
2019-01-22T11:06:11.702Z,48.93
2019-01-22T11:08:46.928Z,60.03
2019-01-22T11:11:19.662Z,57.00
2019-01-22T11:13:52.075Z,70.13
2019-01-22T11:16:25.491Z,52.37
2019-01-22T11:18:58.018Z,47.13
2019-01-22T11:21:30.440Z,48.20
2019-01-22T11:24:02.834Z,34.03
2019-01-22T11:26:34.991Z,39.43
2019-01-22T11:29:07.296Z,57.83
2019-01-22T11:31:39.699Z,72.63
2019-01-22T11:34:12.077Z,55.33
2019-01-22T11:36:44.390Z,53.17
2019-01-22T11:39:16.804Z,51.57
2019-01-22T11:41:48.934Z,80.37
2019-01-22T11:44:21.390Z,88.73
2019-01-22T11:46:53.767Z,62.87
2019-01-22T11:49:26.118Z,55.73
2019-01-22T11:51:58.261Z,55.73
2019-01-22T11:54:30.661Z,56.20
2019-01-22T11:57:02.897Z,55.13
2019-01-22T11:59:35.177Z,53.67
2019-01-22T12:02:07.414Z,55.20
2019-01-22T12:04:38.718Z,81.53
2019-01-22T12:07:10.876Z,54.37
2019-01-22T12:09:42.172Z,56.73
2019-01-22T12:12:15.481Z,43.30
2019-01-22T12:14:49.749Z,47.63
2019-01-22T12:17:23.242Z,64.97
2019-01-22T12:19:54.515Z,53.33
2019-01-22T12:22:27.737Z,44.87
2019-01-22T12:24:58.885Z,54.73
2019-01-22T12:27:32.291Z,49.50
2019-01-22T12:30:03.732Z,44.03
2019-01-22T12:32:37.001Z,45.43
2019-01-22T12:35:08.567Z,47.53
2019-01-22T12:37:41.961Z,46.10
2019-01-22T12:40:13.523Z,60.97
2019-01-22T12:42:47.370Z,60.40
2019-01-22T12:45:21.870Z,61.43
2019-01-22T12:47:54.131Z,62.60
2019-01-22T12:50:26.778Z,64.07
2019-01-22T12:52:58.871Z,69.00
2019-01-22T12:55:31.323Z,73.30
2019-01-22T12:58:03.599Z,64.20
2019-01-22T13:00:36.181Z,68.90
2019-01-22T13:03:08.621Z,68.43
2019-01-22T13:05:44.752Z,62.90
2019-01-22T13:08:18.318Z,67.20
2019-01-22T13:10:49.538Z,66.17
2019-01-22T13:13:22.732Z,57.60
2019-01-22T13:15:54.140Z,67.70
2019-01-22T13:18:27.455Z,63.70
2019-01-22T13:20:58.803Z,68.03
2019-01-22T13:23:32.367Z,59.90
2019-01-22T13:26:03.744Z,61.77
2019-01-22T13:28:37.477Z,61.23
2019-01-22T13:31:08.810Z,63.03
2019-01-22T13:33:41.923Z,68.40
2019-01-22T13:36:13.277Z,67.97
2019-01-22T13:38:46.491Z,66.33
2019-01-22T13:41:17.784Z,64.10
2019-01-22T13:43:51.080Z,65.33
2019-01-22T13:46:22.317Z,67.00
2019-01-22T13:48:55.441Z,60.17
2019-01-22T13:51:26.652Z,63.77
2019-01-22T13:54:00.277Z,60.57
2019-01-22T13:56:31.661Z,69.23
2019-01-22T13:59:04.829Z,61.40
2019-01-22T14:01:35.922Z,67.90
2019-01-22T14:04:09.135Z,66.67
2019-01-22T14:06:40.513Z,68.77
2019-01-22T14:09:13.782Z,79.30
2019-01-22T14:11:45.027Z,73.80
2019-01-22T14:14:18.317Z,91.93
2019-01-22T14:16:49.562Z,80.47
2019-01-22T14:19:22.796Z,74.00
2019-01-22T14:21:54.110Z,77.40
2019-01-22T14:24:27.491Z,69.67
2019-01-22T14:26:58.826Z,69.77
2019-01-22T14:29:32.183Z,74.93
2019-01-22T14:32:06.712Z,74.03
2019-01-22T14:34:39.861Z,69.00
2019-01-22T14:37:11.090Z,75.57
2019-01-22T14:39:44.403Z,69.90
2019-01-22T14:42:15.502Z,70.17
2019-01-22T14:44:50.440Z,69.83
2019-01-22T14:47:21.706Z,73.00
2019-01-22T14:49:55.084Z,75.30
2019-01-22T14:52:26.255Z,71.37
2019-01-22T14:54:59.676Z,81.83
2019-01-22T14:57:31.302Z,70.10
2019-01-22T15:00:06.568Z,74.80
2019-01-22T15:02:38.273Z,81.63
2019-01-22T15:05:11.683Z,73.47
2019-01-22T15:07:42.756Z,70.10
2019-01-22T15:10:16.419Z,75.70
2019-01-22T15:12:48.387Z,72.37
2019-01-22T15:15:22.010Z,66.30
2019-01-22T15:17:53.305Z,65.37
2019-01-22T15:20:27.191Z,73.57
2019-01-22T15:22:58.367Z,80.43
2019-01-22T15:25:32.057Z,83.53
2019-01-22T15:28:03.699Z,66.93
2019-01-22T15:30:38.829Z,71.40
2019-01-22T15:33:13.208Z,72.17
2019-01-22T15:35:46.605Z,78.83
2019-01-22T15:38:17.733Z,85.30
2019-01-22T15:40:54.039Z,84.10
2019-01-22T15:43:28.213Z,79.53
2019-01-22T15:46:01.602Z,76.03
2019-01-22T15:48:33.052Z,89.73
2019-01-22T15:51:06.474Z,78.73
2019-01-22T15:53:37.681Z,86.43
2019-01-22T15:56:11.127Z,97.33
2019-01-22T15:58:42.400Z,102.63
2019-01-22T16:01:16.203Z,98.17
2019-01-22T16:03:47.610Z,98.87
2019-01-22T16:06:21.170Z,96.23
2019-01-22T16:08:52.405Z,102.10
2019-01-22T16:11:25.836Z,180.57
2019-01-22T16:13:57.281Z,155.07
2019-01-22T16:16:30.673Z,122.20
2019-01-22T16:19:01.910Z,98.93
2019-01-22T16:21:35.334Z,93.07
2019-01-22T16:24:06.631Z,105.50
2019-01-22T16:26:39.951Z,98.83
2019-01-22T16:29:11.083Z,127.37
2019-01-22T16:31:45.569Z,98.50
2019-01-22T16:34:20.425Z,108.70
2019-01-22T16:37:17.090Z,100.90
2019-01-22T16:39:48.133Z,89.70
2019-01-22T16:42:21.399Z,87.73
2019-01-22T16:44:52.633Z,89.07
2019-01-22T16:47:27.051Z,96.80
2019-01-22T16:50:01.525Z,108.80
2019-01-22T16:52:34.730Z,88.93
2019-01-22T16:55:07.070Z,73.00
2019-01-22T16:57:40.540Z,94.83
2019-01-22T17:00:14.199Z,98.43
2019-01-22T17:02:47.563Z,98.60
2019-01-22T17:05:19.115Z,89.27
2019-01-22T17:07:52.491Z,91.37
2019-01-22T17:10:24.140Z,89.27
2019-01-22T17:12:57.573Z,95.57
2019-01-22T17:15:30.216Z,86.47
2019-01-22T17:18:03.729Z,95.97
2019-01-22T17:20:36.287Z,101.17
2019-01-22T17:23:16.348Z,89.93
2019-01-22T17:25:42.902Z,107.30
2019-01-22T17:28:16.370Z,100.13
2019-01-22T17:30:47.614Z,96.57
2019-01-22T17:33:29.879Z,95.00
2019-01-22T17:36:01.067Z,84.23
2019-01-22T17:38:34.339Z,90.87
2019-01-22T17:41:05.507Z,102.00
2019-01-22T17:43:38.805Z,92.20
2019-01-22T17:46:11.172Z,90.93
2019-01-22T17:48:43.647Z,89.93
2019-01-22T17:51:15.925Z,105.63
2019-01-22T17:53:48.104Z,89.67
2019-01-22T17:56:20.536Z,126.37
2019-01-22T17:58:53.052Z,117.00
2019-01-22T18:01:25.399Z,111.10
2019-01-22T18:03:57.847Z,122.77
2019-01-22T18:06:30.251Z,121.10
2019-01-22T18:09:02.851Z,108.23
2019-01-22T18:11:34.567Z,107.80
2019-01-22T18:14:08.530Z,111.27
2019-01-22T18:16:39.899Z,103.23
2019-01-22T18:19:13.243Z,115.03
2019-01-22T18:21:44.578Z,104.70
2019-01-22T18:24:18.253Z,106.10
2019-01-22T18:26:49.505Z,121.33
2019-01-22T18:29:22.854Z,114.17
2019-01-22T18:31:54.317Z,110.53
2019-01-22T18:34:27.537Z,116.77
2019-01-22T18:36:58.793Z,97.60
2019-01-22T18:39:32.310Z,91.33
2019-01-22T18:42:04.958Z,104.53
2019-01-22T18:44:38.263Z,122.77
2019-01-22T18:47:09.501Z,103.60
2019-01-22T18:49:44.065Z,108.37
2019-01-22T18:52:15.221Z,114.97
2019-01-22T18:54:48.732Z,115.80
2019-01-22T18:57:20.060Z,127.50
2019-01-22T18:59:53.602Z,110.73
2019-01-22T19:02:24.829Z,110.27
2019-01-22T19:04:58.457Z,104.57
2019-01-22T19:07:29.786Z,109.97
2019-01-22T19:10:04.146Z,89.13
2019-01-22T19:12:35.654Z,99.40
2019-01-22T19:15:09.695Z,89.00
2019-01-22T19:17:40.867Z,87.77
2019-01-22T19:20:14.406Z,89.40
2019-01-22T19:22:45.646Z,84.30
2019-01-22T19:25:20.290Z,80.40
2019-01-22T19:27:51.555Z,84.70
2019-01-22T19:30:25.871Z,82.97
2019-01-22T19:32:57.116Z,82.40
2019-01-22T19:35:30.671Z,81.10
2019-01-22T19:38:02.542Z,77.00
2019-01-22T19:40:36.041Z,73.57
2019-01-22T19:43:08.379Z,88.70
2019-01-22T19:45:41.685Z,83.03
2019-01-22T19:48:13.092Z,74.63
2019-01-22T19:50:46.467Z,75.20
2019-01-22T19:53:17.941Z,70.80
2019-01-22T19:55:51.191Z,82.07
2019-01-22T19:58:22.688Z,67.33
2019-01-22T20:00:55.993Z,77.47
2019-01-22T20:03:27.280Z,72.87
2019-01-22T20:06:01.447Z,63.03
2019-01-22T20:08:33.154Z,66.50
2019-01-22T20:11:06.846Z,60.57
2019-01-22T20:13:38.336Z,62.53
2019-01-22T20:16:11.880Z,69.73
2019-01-22T20:18:43.193Z,65.83
2019-01-22T20:21:16.853Z,61.43
2019-01-22T20:23:49.590Z,61.23
2019-01-22T20:26:23.092Z,61.60
2019-01-22T20:28:54.345Z,67.97
2019-01-22T20:31:27.523Z,63.37
2019-01-22T20:33:58.827Z,63.43
2019-01-22T20:36:32.312Z,68.00
2019-01-22T20:39:04.619Z,64.87
2019-01-22T20:41:39.474Z,69.40
2019-01-22T20:44:10.841Z,64.07
2019-01-22T20:46:44.311Z,66.80
2019-01-22T20:49:15.519Z,57.17
2019-01-22T20:51:48.716Z,57.20
2019-01-22T20:54:20.060Z,63.70
2019-01-22T20:56:53.532Z,54.83
2019-01-22T20:59:24.821Z,62.10
2019-01-22T21:01:58.170Z,70.63
2019-01-22T21:04:29.550Z,66.00
2019-01-22T21:07:04.289Z,66.50
2019-01-22T21:09:35.533Z,66.03
2019-01-22T21:12:09.173Z,59.33
2019-01-22T21:14:41.481Z,80.43
2019-01-22T21:17:13.674Z,65.90
2019-01-22T21:19:45.885Z,78.27
2019-01-22T21:22:18.253Z,67.57
2019-01-22T21:24:51.111Z,56.70
2019-01-22T21:27:23.490Z,62.50
2019-01-22T21:29:55.935Z,56.33
2019-01-22T21:32:28.272Z,54.30
2019-01-22T21:35:00.796Z,57.77
2019-01-22T21:37:33.051Z,56.20
2019-01-22T21:40:07.458Z,52.40
2019-01-22T21:42:41.102Z,51.77
2019-01-22T21:45:13.298Z,58.87
2019-01-22T21:47:46.619Z,49.97
2019-01-22T21:50:18.902Z,55.07
2019-01-22T21:52:52.378Z,65.63
2019-01-22T21:55:23.955Z,55.33
2019-01-22T21:57:57.404Z,54.33
2019-01-22T22:00:28.609Z,48.73
2019-01-22T22:03:02.458Z,56.53
2019-01-22T22:05:33.810Z,54.20
2019-01-22T22:08:07.610Z,56.70
2019-01-22T22:10:38.933Z,52.87
2019-01-22T22:13:12.245Z,47.23
2019-01-22T22:15:43.643Z,52.80
2019-01-22T22:18:16.786Z,52.40
2019-01-22T22:20:48.239Z,54.83
2019-01-22T22:23:21.670Z,62.73
2019-01-22T22:25:52.894Z,60.23
2019-01-22T22:28:26.248Z,65.63
2019-01-22T22:30:57.650Z,57.47
2019-01-22T22:33:30.987Z,59.67
2019-01-22T22:36:03.193Z,61.70
2019-01-22T22:38:36.757Z,55.70
2019-01-22T22:41:08.211Z,69.43
2019-01-22T22:43:41.435Z,58.40
2019-01-22T22:46:12.634Z,55.73
2019-01-22T22:48:45.823Z,52.90
2019-01-22T22:51:17.406Z,56.10
2019-01-22T22:53:50.759Z,63.07
2019-01-22T22:56:21.859Z,57.97
2019-01-22T22:58:55.267Z,69.70
2019-01-22T23:01:28.597Z,71.20
2019-01-22T23:04:02.260Z,53.17
2019-01-22T23:06:36.446Z,70.83
2019-01-22T23:09:12.471Z,64.33
2019-01-22T23:11:43.679Z,63.00
2019-01-22T23:14:16.889Z,65.73
2019-01-22T23:16:48.170Z,89.17
2019-01-22T23:19:22.060Z,60.00
2019-01-22T23:21:53.579Z,70.50
2019-01-22T23:24:29.172Z,74.80
2019-01-22T23:27:00.573Z,78.60
2019-01-22T23:29:37.209Z,70.53
2019-01-22T23:32:08.741Z,68.90
2019-01-22T23:34:41.979Z,76.47
2019-01-22T23:37:13.203Z,65.40
2019-01-22T23:39:46.535Z,73.87
2019-01-22T23:42:17.746Z,61.23
2019-01-22T23:44:51.166Z,76.13
2019-01-22T23:47:22.514Z,81.00
2019-01-22T23:49:56.816Z,67.03
2019-01-22T23:52:27.948Z,72.33
2019-01-22T23:55:01.358Z,81.47
2019-01-22T23:57:32.668Z,69.80
